sensor_id;sensor_type;location;lat;lon;timestamp;P1;durP1;ratioP1;P2;durP2;ratioP2
6785;SDS011;3430;51.192;6.048;2022-08-05T00:01:35;3.43;;;1.57;;
6785;SDS011;3430;51.192;6.048;2022-08-05T00:04:00;1.93;;;1.60;;
6785;SDS011;3430;51.192;6.048;2022-08-05T00:06:25;2.33;;;1.83;;
6785;SDS011;3430;51.192;6.048;2022-08-05T00:08:51;3.13;;;1.80;;
6785;SDS011;3430;51.192;6.048;2022-08-05T00:11:16;1.70;;;1.50;;
6785;SDS011;3430;51.192;6.048;2022-08-05T00:13:42;1.80;;;1.40;;
6785;SDS011;3430;51.192;6.048;2022-08-05T00:16:08;3.10;;;1.63;;
6785;SDS011;3430;51.192;6.048;2022-08-05T00:18:35;3.00;;;1.63;;
6785;SDS011;3430;51.192;6.048;2022-08-05T00:21:00;3.57;;;1.70;;
6785;SDS011;3430;51.192;6.048;2022-08-05T00:23:25;2.10;;;1.70;;
6785;SDS011;3430;51.192;6.048;2022-08-05T00:25:51;2.20;;;1.70;;
6785;SDS011;3430;51.192;6.048;2022-08-05T00:28:16;3.80;;;1.67;;
6785;SDS011;3430;51.192;6.048;2022-08-05T00:30:42;2.90;;;1.63;;
6785;SDS011;3430;51.192;6.048;2022-08-05T00:33:07;2.70;;;1.70;;
6785;SDS011;3430;51.192;6.048;2022-08-05T00:35:33;1.70;;;1.60;;
6785;SDS011;3430;51.192;6.048;2022-08-05T00:37:58;2.93;;;1.90;;
6785;SDS011;3430;51.192;6.048;2022-08-05T00:40:24;2.80;;;1.57;;
6785;SDS011;3430;51.192;6.048;2022-08-05T00:42:50;3.13;;;1.90;;
6785;SDS011;3430;51.192;6.048;2022-08-05T00:45:15;3.90;;;1.80;;
6785;SDS011;3430;51.192;6.048;2022-08-05T00:47:40;2.17;;;1.73;;
6785;SDS011;3430;51.192;6.048;2022-08-05T00:50:06;2.90;;;1.93;;
6785;SDS011;3430;51.192;6.048;2022-08-05T00:52:32;4.27;;;2.03;;
6785;SDS011;3430;51.192;6.048;2022-08-05T00:54:57;1.70;;;1.60;;
6785;SDS011;3430;51.192;6.048;2022-08-05T00:57:22;4.93;;;1.90;;
6785;SDS011;3430;51.192;6.048;2022-08-05T00:59:48;3.27;;;1.87;;
6785;SDS011;3430;51.192;6.048;2022-08-05T01:02:13;1.83;;;1.40;;
6785;SDS011;3430;51.192;6.048;2022-08-05T01:04:38;4.33;;;1.93;;
6785;SDS011;3430;51.192;6.048;2022-08-05T01:07:04;2.10;;;1.70;;
6785;SDS011;3430;51.192;6.048;2022-08-05T01:09:29;2.83;;;1.67;;
6785;SDS011;3430;51.192;6.048;2022-08-05T01:11:55;2.47;;;1.90;;
6785;SDS011;3430;51.192;6.048;2022-08-05T01:17:13;3.93;;;1.90;;
6785;SDS011;3430;51.192;6.048;2022-08-05T01:19:42;3.83;;;1.60;;
6785;SDS011;3430;51.192;6.048;2022-08-05T01:27:18;3.73;;;1.63;;
6785;SDS011;3430;51.192;6.048;2022-08-05T01:29:48;2.90;;;1.53;;
6785;SDS011;3430;51.192;6.048;2022-08-05T01:32:15;2.73;;;1.87;;
6785;SDS011;3430;51.192;6.048;2022-08-05T01:34:50;2.03;;;1.83;;
6785;SDS011;3430;51.192;6.048;2022-08-05T01:37:22;1.57;;;1.47;;
6785;SDS011;3430;51.192;6.048;2022-08-05T01:39:48;6.17;;;2.30;;
6785;SDS011;3430;51.192;6.048;2022-08-05T01:42:16;1.93;;;1.80;;
6785;SDS011;3430;51.192;6.048;2022-08-05T01:44:43;2.10;;;1.77;;
6785;SDS011;3430;51.192;6.048;2022-08-05T01:47:09;2.77;;;1.63;;
6785;SDS011;3430;51.192;6.048;2022-08-05T01:49:36;2.80;;;2.17;;
6785;SDS011;3430;51.192;6.048;2022-08-05T01:52:03;3.27;;;1.90;;
6785;SDS011;3430;51.192;6.048;2022-08-05T01:54:38;2.10;;;1.70;;
6785;SDS011;3430;51.192;6.048;2022-08-05T01:57:04;4.10;;;1.60;;
6785;SDS011;3430;51.192;6.048;2022-08-05T01:59:30;2.20;;;1.77;;
6785;SDS011;3430;51.192;6.048;2022-08-05T02:01:58;5.50;;;1.80;;
6785;SDS011;3430;51.192;6.048;2022-08-05T02:04:25;1.93;;;1.77;;
6785;SDS011;3430;51.192;6.048;2022-08-05T02:06:52;2.93;;;2.13;;
6785;SDS011;3430;51.192;6.048;2022-08-05T02:09:17;3.40;;;1.87;;
6785;SDS011;3430;51.192;6.048;2022-08-05T02:14:32;1.83;;;1.40;;
6785;SDS011;3430;51.192;6.048;2022-08-05T02:17:10;2.33;;;1.70;;
6785;SDS011;3430;51.192;6.048;2022-08-05T02:19:36;3.40;;;1.97;;
6785;SDS011;3430;51.192;6.048;2022-08-05T02:22:15;2.50;;;1.90;;
6785;SDS011;3430;51.192;6.048;2022-08-05T02:24:44;3.77;;;1.90;;
6785;SDS011;3430;51.192;6.048;2022-08-05T02:27:10;2.37;;;1.90;;
6785;SDS011;3430;51.192;6.048;2022-08-05T02:29:36;4.00;;;2.40;;
6785;SDS011;3430;51.192;6.048;2022-08-05T02:32:03;3.23;;;2.07;;
6785;SDS011;3430;51.192;6.048;2022-08-05T02:34:30;3.93;;;2.10;;
6785;SDS011;3430;51.192;6.048;2022-08-05T02:36:58;2.10;;;1.83;;
6785;SDS011;3430;51.192;6.048;2022-08-05T02:39:23;10.40;;;2.47;;
6785;SDS011;3430;51.192;6.048;2022-08-05T02:41:50;2.67;;;1.97;;
6785;SDS011;3430;51.192;6.048;2022-08-05T02:44:16;4.30;;;2.03;;
6785;SDS011;3430;51.192;6.048;2022-08-05T02:46:44;3.03;;;2.07;;
6785;SDS011;3430;51.192;6.048;2022-08-05T02:49:12;3.27;;;2.17;;
6785;SDS011;3430;51.192;6.048;2022-08-05T02:51:38;3.23;;;1.80;;
6785;SDS011;3430;51.192;6.048;2022-08-05T02:54:04;2.43;;;2.00;;
6785;SDS011;3430;51.192;6.048;2022-08-05T02:56:29;2.30;;;2.10;;
6785;SDS011;3430;51.192;6.048;2022-08-05T02:58:56;5.23;;;2.20;;
6785;SDS011;3430;51.192;6.048;2022-08-05T03:01:23;3.10;;;2.20;;
6785;SDS011;3430;51.192;6.048;2022-08-05T03:03:51;4.77;;;2.27;;
6785;SDS011;3430;51.192;6.048;2022-08-05T03:06:17;2.47;;;1.97;;
6785;SDS011;3430;51.192;6.048;2022-08-05T03:08:43;3.60;;;2.20;;
6785;SDS011;3430;51.192;6.048;2022-08-05T03:11:18;2.57;;;1.90;;
6785;SDS011;3430;51.192;6.048;2022-08-05T03:13:44;3.30;;;1.90;;
6785;SDS011;3430;51.192;6.048;2022-08-05T03:16:09;2.20;;;2.00;;
6785;SDS011;3430;51.192;6.048;2022-08-05T03:18:34;3.77;;;2.10;;
6785;SDS011;3430;51.192;6.048;2022-08-05T03:21:00;3.40;;;1.80;;
6785;SDS011;3430;51.192;6.048;2022-08-05T03:23:25;4.70;;;2.10;;
6785;SDS011;3430;51.192;6.048;2022-08-05T03:25:50;3.57;;;1.93;;
6785;SDS011;3430;51.192;6.048;2022-08-05T03:28:16;1.93;;;1.73;;
6785;SDS011;3430;51.192;6.048;2022-08-05T03:30:42;3.40;;;2.10;;
6785;SDS011;3430;51.192;6.048;2022-08-05T03:33:08;2.83;;;1.93;;
6785;SDS011;3430;51.192;6.048;2022-08-05T03:35:33;2.03;;;1.67;;
6785;SDS011;3430;51.192;6.048;2022-08-05T03:37:59;1.97;;;1.73;;
6785;SDS011;3430;51.192;6.048;2022-08-05T03:40:24;2.17;;;1.73;;
6785;SDS011;3430;51.192;6.048;2022-08-05T03:42:50;2.43;;;1.77;;
6785;SDS011;3430;51.192;6.048;2022-08-05T03:45:15;5.13;;;2.30;;
6785;SDS011;3430;51.192;6.048;2022-08-05T03:47:40;3.30;;;2.10;;
6785;SDS011;3430;51.192;6.048;2022-08-05T03:50:06;2.13;;;1.90;;
6785;SDS011;3430;51.192;6.048;2022-08-05T03:52:32;2.40;;;1.83;;
6785;SDS011;3430;51.192;6.048;2022-08-05T03:55:00;2.57;;;2.27;;
6785;SDS011;3430;51.192;6.048;2022-08-05T03:57:27;3.33;;;2.17;;
6785;SDS011;3430;51.192;6.048;2022-08-05T03:59:57;4.43;;;2.40;;
6785;SDS011;3430;51.192;6.048;2022-08-05T04:02:25;2.40;;;2.00;;
6785;SDS011;3430;51.192;6.048;2022-08-05T04:04:51;1.80;;;1.70;;
6785;SDS011;3430;51.192;6.048;2022-08-05T04:07:16;3.20;;;1.97;;
6785;SDS011;3430;51.192;6.048;2022-08-05T04:09:42;2.63;;;2.23;;
6785;SDS011;3430;51.192;6.048;2022-08-05T04:12:07;2.00;;;1.80;;
6785;SDS011;3430;51.192;6.048;2022-08-05T04:14:32;3.63;;;2.10;;
6785;SDS011;3430;51.192;6.048;2022-08-05T04:16:58;2.97;;;2.07;;
6785;SDS011;3430;51.192;6.048;2022-08-05T04:19:24;1.90;;;1.80;;
6785;SDS011;3430;51.192;6.048;2022-08-05T04:21:49;4.93;;;2.43;;
6785;SDS011;3430;51.192;6.048;2022-08-05T04:24:14;2.07;;;1.87;;
6785;SDS011;3430;51.192;6.048;2022-08-05T04:26:40;2.93;;;2.30;;
6785;SDS011;3430;51.192;6.048;2022-08-05T04:29:05;3.50;;;2.00;;
6785;SDS011;3430;51.192;6.048;2022-08-05T04:31:31;4.20;;;2.00;;
6785;SDS011;3430;51.192;6.048;2022-08-05T04:33:56;2.33;;;2.03;;
6785;SDS011;3430;51.192;6.048;2022-08-05T04:36:22;2.90;;;1.97;;
6785;SDS011;3430;51.192;6.048;2022-08-05T04:38:47;4.10;;;2.07;;
6785;SDS011;3430;51.192;6.048;2022-08-05T04:41:12;3.57;;;2.20;;
6785;SDS011;3430;51.192;6.048;2022-08-05T04:43:38;4.47;;;2.00;;
6785;SDS011;3430;51.192;6.048;2022-08-05T04:46:04;4.90;;;2.23;;
6785;SDS011;3430;51.192;6.048;2022-08-05T04:48:29;3.90;;;2.03;;
6785;SDS011;3430;51.192;6.048;2022-08-05T04:50:54;2.33;;;2.10;;
6785;SDS011;3430;51.192;6.048;2022-08-05T04:53:20;6.33;;;2.20;;
6785;SDS011;3430;51.192;6.048;2022-08-05T04:55:45;2.27;;;2.00;;
6785;SDS011;3430;51.192;6.048;2022-08-05T04:58:11;2.10;;;1.90;;
6785;SDS011;3430;51.192;6.048;2022-08-05T05:00:37;3.20;;;1.60;;
6785;SDS011;3430;51.192;6.048;2022-08-05T05:03:03;2.53;;;1.90;;
6785;SDS011;3430;51.192;6.048;2022-08-05T05:05:28;2.23;;;1.80;;
6785;SDS011;3430;51.192;6.048;2022-08-05T05:08:01;2.13;;;1.93;;
6785;SDS011;3430;51.192;6.048;2022-08-05T05:10:28;3.73;;;1.60;;
6785;SDS011;3430;51.192;6.048;2022-08-05T05:12:53;3.10;;;2.00;;
6785;SDS011;3430;51.192;6.048;2022-08-05T05:15:18;2.60;;;2.00;;
6785;SDS011;3430;51.192;6.048;2022-08-05T05:17:44;2.30;;;2.10;;
6785;SDS011;3430;51.192;6.048;2022-08-05T05:20:10;2.77;;;1.67;;
6785;SDS011;3430;51.192;6.048;2022-08-05T05:22:35;3.03;;;2.00;;
6785;SDS011;3430;51.192;6.048;2022-08-05T05:25:01;3.57;;;2.30;;
6785;SDS011;3430;51.192;6.048;2022-08-05T05:27:26;2.27;;;1.70;;
6785;SDS011;3430;51.192;6.048;2022-08-05T05:29:52;2.97;;;2.10;;
6785;SDS011;3430;51.192;6.048;2022-08-05T05:32:17;2.10;;;1.87;;
6785;SDS011;3430;51.192;6.048;2022-08-05T05:34:42;2.63;;;2.10;;
6785;SDS011;3430;51.192;6.048;2022-08-05T05:37:08;8.60;;;2.20;;
6785;SDS011;3430;51.192;6.048;2022-08-05T05:39:33;2.30;;;2.10;;
6785;SDS011;3430;51.192;6.048;2022-08-05T05:41:58;2.23;;;2.00;;
6785;SDS011;3430;51.192;6.048;2022-08-05T05:44:26;2.53;;;2.33;;
6785;SDS011;3430;51.192;6.048;2022-08-05T05:46:52;3.30;;;2.00;;
6785;SDS011;3430;51.192;6.048;2022-08-05T05:49:17;2.83;;;2.10;;
6785;SDS011;3430;51.192;6.048;2022-08-05T05:51:42;2.93;;;1.90;;
6785;SDS011;3430;51.192;6.048;2022-08-05T05:54:08;2.70;;;2.00;;
6785;SDS011;3430;51.192;6.048;2022-08-05T05:56:33;3.27;;;2.10;;
6785;SDS011;3430;51.192;6.048;2022-08-05T05:58:59;2.27;;;1.80;;
6785;SDS011;3430;51.192;6.048;2022-08-05T06:01:24;4.90;;;2.10;;
6785;SDS011;3430;51.192;6.048;2022-08-05T06:03:49;4.00;;;2.03;;
6785;SDS011;3430;51.192;6.048;2022-08-05T06:06:14;2.70;;;2.03;;
6785;SDS011;3430;51.192;6.048;2022-08-05T06:08:40;2.90;;;1.97;;
6785;SDS011;3430;51.192;6.048;2022-08-05T06:11:05;3.20;;;2.03;;
6785;SDS011;3430;51.192;6.048;2022-08-05T06:13:30;1.90;;;1.80;;
6785;SDS011;3430;51.192;6.048;2022-08-05T06:15:56;1.70;;;1.60;;
6785;SDS011;3430;51.192;6.048;2022-08-05T06:18:21;2.50;;;1.87;;
6785;SDS011;3430;51.192;6.048;2022-08-05T06:20:47;2.73;;;1.80;;
6785;SDS011;3430;51.192;6.048;2022-08-05T06:23:12;3.63;;;2.07;;
6785;SDS011;3430;51.192;6.048;2022-08-05T06:25:37;3.83;;;1.87;;
6785;SDS011;3430;51.192;6.048;2022-08-05T06:28:03;1.97;;;1.70;;
6785;SDS011;3430;51.192;6.048;2022-08-05T06:30:28;2.37;;;1.77;;
6785;SDS011;3430;51.192;6.048;2022-08-05T06:32:53;3.47;;;1.80;;
6785;SDS011;3430;51.192;6.048;2022-08-05T06:35:19;2.07;;;1.87;;
6785;SDS011;3430;51.192;6.048;2022-08-05T06:37:44;2.13;;;1.93;;
6785;SDS011;3430;51.192;6.048;2022-08-05T06:40:10;4.87;;;2.23;;
6785;SDS011;3430;51.192;6.048;2022-08-05T06:42:36;2.97;;;1.80;;
6785;SDS011;3430;51.192;6.048;2022-08-05T06:45:01;3.47;;;1.77;;
6785;SDS011;3430;51.192;6.048;2022-08-05T06:47:26;3.83;;;1.90;;
6785;SDS011;3430;51.192;6.048;2022-08-05T06:49:52;2.77;;;2.20;;
6785;SDS011;3430;51.192;6.048;2022-08-05T06:52:17;4.70;;;2.10;;
6785;SDS011;3430;51.192;6.048;2022-08-05T06:54:42;3.40;;;1.90;;
6785;SDS011;3430;51.192;6.048;2022-08-05T06:57:08;1.90;;;1.67;;
6785;SDS011;3430;51.192;6.048;2022-08-05T06:59:33;3.97;;;2.00;;
6785;SDS011;3430;51.192;6.048;2022-08-05T07:01:58;1.73;;;1.50;;
6785;SDS011;3430;51.192;6.048;2022-08-05T07:04:24;4.70;;;2.03;;
6785;SDS011;3430;51.192;6.048;2022-08-05T07:06:49;1.90;;;1.80;;
6785;SDS011;3430;51.192;6.048;2022-08-05T07:09:14;3.97;;;1.80;;
6785;SDS011;3430;51.192;6.048;2022-08-05T07:11:40;3.03;;;1.80;;
6785;SDS011;3430;51.192;6.048;2022-08-05T07:14:06;7.27;;;1.80;;
6785;SDS011;3430;51.192;6.048;2022-08-05T07:16:50;5.43;;;1.80;;
6785;SDS011;3430;51.192;6.048;2022-08-05T07:19:19;2.77;;;1.93;;
6785;SDS011;3430;51.192;6.048;2022-08-05T07:21:48;2.20;;;1.70;;
6785;SDS011;3430;51.192;6.048;2022-08-05T07:24:13;2.77;;;1.80;;
6785;SDS011;3430;51.192;6.048;2022-08-05T07:26:39;2.57;;;1.63;;
6785;SDS011;3430;51.192;6.048;2022-08-05T07:29:04;2.10;;;1.77;;
6785;SDS011;3430;51.192;6.048;2022-08-05T07:31:30;3.33;;;2.23;;
6785;SDS011;3430;51.192;6.048;2022-08-05T07:33:55;4.10;;;2.00;;
6785;SDS011;3430;51.192;6.048;2022-08-05T07:36:20;5.17;;;2.10;;
6785;SDS011;3430;51.192;6.048;2022-08-05T07:38:45;1.50;;;1.40;;
6785;SDS011;3430;51.192;6.048;2022-08-05T07:41:14;3.30;;;1.73;;
6785;SDS011;3430;51.192;6.048;2022-08-05T07:43:40;3.40;;;2.00;;
6785;SDS011;3430;51.192;6.048;2022-08-05T07:46:06;2.97;;;1.70;;
6785;SDS011;3430;51.192;6.048;2022-08-05T07:48:31;2.00;;;1.73;;
6785;SDS011;3430;51.192;6.048;2022-08-05T07:50:56;2.50;;;1.40;;
6785;SDS011;3430;51.192;6.048;2022-08-05T07:53:21;2.87;;;1.80;;
6785;SDS011;3430;51.192;6.048;2022-08-05T07:55:50;2.80;;;1.73;;
6785;SDS011;3430;51.192;6.048;2022-08-05T07:58:15;1.77;;;1.60;;
6785;SDS011;3430;51.192;6.048;2022-08-05T08:00:41;2.57;;;1.93;;
6785;SDS011;3430;51.192;6.048;2022-08-05T08:03:09;2.57;;;1.70;;
6785;SDS011;3430;51.192;6.048;2022-08-05T08:05:36;3.20;;;1.80;;
6785;SDS011;3430;51.192;6.048;2022-08-05T08:08:01;3.47;;;2.40;;
6785;SDS011;3430;51.192;6.048;2022-08-05T08:10:27;2.93;;;1.63;;
6785;SDS011;3430;51.192;6.048;2022-08-05T08:12:52;4.33;;;1.87;;
6785;SDS011;3430;51.192;6.048;2022-08-05T08:15:18;4.20;;;2.27;;
6785;SDS011;3430;51.192;6.048;2022-08-05T08:17:43;3.83;;;1.90;;
6785;SDS011;3430;51.192;6.048;2022-08-05T08:20:09;3.73;;;2.17;;
6785;SDS011;3430;51.192;6.048;2022-08-05T08:22:34;2.50;;;2.27;;
6785;SDS011;3430;51.192;6.048;2022-08-05T08:25:00;4.23;;;2.30;;
6785;SDS011;3430;51.192;6.048;2022-08-05T08:27:25;3.70;;;2.03;;
6785;SDS011;3430;51.192;6.048;2022-08-05T08:29:50;6.43;;;2.43;;
6785;SDS011;3430;51.192;6.048;2022-08-05T08:32:15;4.37;;;2.07;;
6785;SDS011;3430;51.192;6.048;2022-08-05T08:34:41;3.17;;;1.87;;
6785;SDS011;3430;51.192;6.048;2022-08-05T08:37:06;3.27;;;2.43;;
6785;SDS011;3430;51.192;6.048;2022-08-05T08:39:32;6.27;;;2.57;;
6785;SDS011;3430;51.192;6.048;2022-08-05T08:41:58;2.47;;;2.20;;
6785;SDS011;3430;51.192;6.048;2022-08-05T08:44:24;3.37;;;2.37;;
6785;SDS011;3430;51.192;6.048;2022-08-05T08:46:51;4.53;;;2.30;;
6785;SDS011;3430;51.192;6.048;2022-08-05T08:49:18;3.93;;;1.97;;
6785;SDS011;3430;51.192;6.048;2022-08-05T08:51:48;3.30;;;2.23;;
6785;SDS011;3430;51.192;6.048;2022-08-05T08:54:14;3.77;;;2.27;;
6785;SDS011;3430;51.192;6.048;2022-08-05T08:56:40;2.40;;;2.00;;
6785;SDS011;3430;51.192;6.048;2022-08-05T08:59:05;3.23;;;2.23;;
6785;SDS011;3430;51.192;6.048;2022-08-05T09:01:31;4.03;;;2.13;;
6785;SDS011;3430;51.192;6.048;2022-08-05T09:03:56;2.90;;;2.00;;
6785;SDS011;3430;51.192;6.048;2022-08-05T09:06:24;4.27;;;1.70;;
6785;SDS011;3430;51.192;6.048;2022-08-05T09:08:51;2.97;;;1.90;;
6785;SDS011;3430;51.192;6.048;2022-08-05T09:11:16;3.03;;;1.70;;
6785;SDS011;3430;51.192;6.048;2022-08-05T09:13:41;3.73;;;1.80;;
6785;SDS011;3430;51.192;6.048;2022-08-05T09:16:07;6.23;;;1.83;;
6785;SDS011;3430;51.192;6.048;2022-08-05T09:18:35;4.00;;;1.87;;
6785;SDS011;3430;51.192;6.048;2022-08-05T09:21:01;4.93;;;1.93;;
6785;SDS011;3430;51.192;6.048;2022-08-05T09:23:26;1.90;;;1.80;;
6785;SDS011;3430;51.192;6.048;2022-08-05T09:25:52;3.07;;;1.83;;
6785;SDS011;3430;51.192;6.048;2022-08-05T09:28:29;3.83;;;1.87;;
6785;SDS011;3430;51.192;6.048;2022-08-05T09:30:56;3.20;;;1.90;;
6785;SDS011;3430;51.192;6.048;2022-08-05T09:33:23;3.03;;;1.90;;
6785;SDS011;3430;51.192;6.048;2022-08-05T09:35:55;2.17;;;1.50;;
6785;SDS011;3430;51.192;6.048;2022-08-05T09:38:20;3.00;;;1.90;;
6785;SDS011;3430;51.192;6.048;2022-08-05T09:40:46;4.83;;;2.33;;
6785;SDS011;3430;51.192;6.048;2022-08-05T09:43:29;2.80;;;1.87;;
6785;SDS011;3430;51.192;6.048;2022-08-05T09:45:55;2.07;;;1.80;;
6785;SDS011;3430;51.192;6.048;2022-08-05T09:48:23;6.07;;;2.20;;
6785;SDS011;3430;51.192;6.048;2022-08-05T09:50:52;5.40;;;2.33;;
6785;SDS011;3430;51.192;6.048;2022-08-05T09:53:18;3.60;;;2.00;;
6785;SDS011;3430;51.192;6.048;2022-08-05T09:55:43;6.50;;;2.17;;
6785;SDS011;3430;51.192;6.048;2022-08-05T09:58:12;3.40;;;2.03;;
6785;SDS011;3430;51.192;6.048;2022-08-05T10:00:38;2.50;;;2.03;;
6785;SDS011;3430;51.192;6.048;2022-08-05T10:03:09;2.37;;;2.10;;
6785;SDS011;3430;51.192;6.048;2022-08-05T10:05:35;2.83;;;2.13;;
6785;SDS011;3430;51.192;6.048;2022-08-05T10:08:04;2.97;;;1.97;;
6785;SDS011;3430;51.192;6.048;2022-08-05T10:10:31;3.03;;;1.93;;
6785;SDS011;3430;51.192;6.048;2022-08-05T10:13:00;3.20;;;2.50;;
6785;SDS011;3430;51.192;6.048;2022-08-05T10:18:07;3.30;;;2.20;;
6785;SDS011;3430;51.192;6.048;2022-08-05T10:20:34;4.27;;;2.47;;
6785;SDS011;3430;51.192;6.048;2022-08-05T10:23:00;3.43;;;2.40;;
6785;SDS011;3430;51.192;6.048;2022-08-05T10:25:26;2.10;;;1.80;;
6785;SDS011;3430;51.192;6.048;2022-08-05T10:27:51;3.70;;;2.27;;
6785;SDS011;3430;51.192;6.048;2022-08-05T10:30:18;4.07;;;2.17;;
6785;SDS011;3430;51.192;6.048;2022-08-05T10:32:43;3.47;;;2.00;;
6785;SDS011;3430;51.192;6.048;2022-08-05T10:35:10;3.20;;;2.20;;
6785;SDS011;3430;51.192;6.048;2022-08-05T10:37:35;4.67;;;2.50;;
6785;SDS011;3430;51.192;6.048;2022-08-05T10:40:03;3.97;;;2.07;;
6785;SDS011;3430;51.192;6.048;2022-08-05T10:42:30;3.40;;;2.10;;
6785;SDS011;3430;51.192;6.048;2022-08-05T10:45:00;3.63;;;2.67;;
6785;SDS011;3430;51.192;6.048;2022-08-05T10:47:31;3.93;;;2.40;;
6785;SDS011;3430;51.192;6.048;2022-08-05T10:52:40;3.47;;;2.50;;
6785;SDS011;3430;51.192;6.048;2022-08-05T10:55:09;3.90;;;2.40;;
6785;SDS011;3430;51.192;6.048;2022-08-05T10:57:35;2.97;;;2.27;;
6785;SDS011;3430;51.192;6.048;2022-08-05T11:00:13;3.63;;;2.23;;
6785;SDS011;3430;51.192;6.048;2022-08-05T11:03:22;5.70;;;2.63;;
6785;SDS011;3430;51.192;6.048;2022-08-05T11:05:29;2.70;;;2.30;;
6785;SDS011;3430;51.192;6.048;2022-08-05T11:07:55;5.27;;;2.60;;
6785;SDS011;3430;51.192;6.048;2022-08-05T11:10:21;3.77;;;2.57;;
6785;SDS011;3430;51.192;6.048;2022-08-05T11:12:47;5.17;;;2.60;;
6785;SDS011;3430;51.192;6.048;2022-08-05T11:17:42;5.13;;;3.17;;
6785;SDS011;3430;51.192;6.048;2022-08-05T11:22:52;3.40;;;2.70;;
6785;SDS011;3430;51.192;6.048;2022-08-05T11:25:27;2.80;;;2.30;;
6785;SDS011;3430;51.192;6.048;2022-08-05T11:27:53;3.50;;;2.50;;
6785;SDS011;3430;51.192;6.048;2022-08-05T11:30:18;5.43;;;2.20;;
6785;SDS011;3430;51.192;6.048;2022-08-05T11:32:43;10.67;;;3.30;;
6785;SDS011;3430;51.192;6.048;2022-08-05T11:35:25;3.07;;;2.30;;
6785;SDS011;3430;51.192;6.048;2022-08-05T11:40:19;2.60;;;2.10;;
6785;SDS011;3430;51.192;6.048;2022-08-05T11:43:04;7.53;;;2.30;;
6785;SDS011;3430;51.192;6.048;2022-08-05T11:45:30;3.67;;;2.33;;
6785;SDS011;3430;51.192;6.048;2022-08-05T11:47:56;4.07;;;2.70;;
6785;SDS011;3430;51.192;6.048;2022-08-05T11:50:21;4.67;;;2.10;;
6785;SDS011;3430;51.192;6.048;2022-08-05T11:52:46;5.07;;;2.00;;
6785;SDS011;3430;51.192;6.048;2022-08-05T11:55:12;3.50;;;2.30;;
6785;SDS011;3430;51.192;6.048;2022-08-05T11:57:37;4.40;;;2.60;;
6785;SDS011;3430;51.192;6.048;2022-08-05T12:00:30;2.77;;;2.33;;
6785;SDS011;3430;51.192;6.048;2022-08-05T12:02:54;2.63;;;2.17;;
6785;SDS011;3430;51.192;6.048;2022-08-05T12:05:27;3.33;;;2.70;;
6785;SDS011;3430;51.192;6.048;2022-08-05T12:07:55;3.80;;;2.40;;
6785;SDS011;3430;51.192;6.048;2022-08-05T12:10:21;2.50;;;2.10;;
6785;SDS011;3430;51.192;6.048;2022-08-05T12:12:47;7.33;;;1.80;;
6785;SDS011;3430;51.192;6.048;2022-08-05T12:15:19;3.03;;;1.90;;
6785;SDS011;3430;51.192;6.048;2022-08-05T12:17:44;3.60;;;1.77;;
6785;SDS011;3430;51.192;6.048;2022-08-05T12:20:10;6.73;;;1.90;;
6785;SDS011;3430;51.192;6.048;2022-08-05T12:22:37;2.53;;;1.70;;
6785;SDS011;3430;51.192;6.048;2022-08-05T12:25:03;2.00;;;1.47;;
6785;SDS011;3430;51.192;6.048;2022-08-05T12:27:28;2.67;;;1.60;;
6785;SDS011;3430;51.192;6.048;2022-08-05T12:32:34;3.50;;;1.80;;
6785;SDS011;3430;51.192;6.048;2022-08-05T12:35:03;3.77;;;1.33;;
6785;SDS011;3430;51.192;6.048;2022-08-05T12:37:29;1.80;;;1.47;;
6785;SDS011;3430;51.192;6.048;2022-08-05T12:39:55;4.73;;;1.60;;
6785;SDS011;3430;51.192;6.048;2022-08-05T12:42:20;1.37;;;1.27;;
6785;SDS011;3430;51.192;6.048;2022-08-05T12:44:46;2.30;;;1.40;;
6785;SDS011;3430;51.192;6.048;2022-08-05T12:47:12;1.50;;;1.40;;
6785;SDS011;3430;51.192;6.048;2022-08-05T12:49:38;1.30;;;1.20;;
6785;SDS011;3430;51.192;6.048;2022-08-05T12:52:04;1.83;;;1.23;;
6785;SDS011;3430;51.192;6.048;2022-08-05T12:54:35;1.37;;;1.27;;
6785;SDS011;3430;51.192;6.048;2022-08-05T12:57:01;1.77;;;1.50;;
6785;SDS011;3430;51.192;6.048;2022-08-05T12:59:28;2.03;;;1.43;;
6785;SDS011;3430;51.192;6.048;2022-08-05T13:04:20;2.40;;;1.43;;
6785;SDS011;3430;51.192;6.048;2022-08-05T13:06:45;2.17;;;1.20;;
6785;SDS011;3430;51.192;6.048;2022-08-05T13:09:12;1.60;;;1.50;;
6785;SDS011;3430;51.192;6.048;2022-08-05T13:11:39;2.30;;;1.60;;
6785;SDS011;3430;51.192;6.048;2022-08-05T13:14:20;1.60;;;1.40;;
6785;SDS011;3430;51.192;6.048;2022-08-05T13:19:11;3.20;;;1.30;;
6785;SDS011;3430;51.192;6.048;2022-08-05T13:21:36;1.30;;;1.20;;
6785;SDS011;3430;51.192;6.048;2022-08-05T13:24:02;2.10;;;1.47;;
6785;SDS011;3430;51.192;6.048;2022-08-05T13:26:27;2.37;;;1.30;;
6785;SDS011;3430;51.192;6.048;2022-08-05T13:28:54;2.10;;;1.10;;
6785;SDS011;3430;51.192;6.048;2022-08-05T13:31:19;1.30;;;1.00;;
6785;SDS011;3430;51.192;6.048;2022-08-05T13:33:45;1.20;;;1.10;;
6785;SDS011;3430;51.192;6.048;2022-08-05T13:36:10;1.20;;;1.10;;
6785;SDS011;3430;51.192;6.048;2022-08-05T13:38:37;1.47;;;1.23;;
6785;SDS011;3430;51.192;6.048;2022-08-05T13:41:02;1.00;;;1.00;;
6785;SDS011;3430;51.192;6.048;2022-08-05T13:43:27;1.43;;;1.20;;
6785;SDS011;3430;51.192;6.048;2022-08-05T13:45:53;2.50;;;1.27;;
6785;SDS011;3430;51.192;6.048;2022-08-05T13:48:18;0.93;;;0.93;;
6785;SDS011;3430;51.192;6.048;2022-08-05T13:50:43;1.00;;;1.00;;
6785;SDS011;3430;51.192;6.048;2022-08-05T13:53:08;1.87;;;1.10;;
6785;SDS011;3430;51.192;6.048;2022-08-05T13:55:34;1.37;;;1.20;;
6785;SDS011;3430;51.192;6.048;2022-08-05T13:57:59;1.10;;;1.00;;
6785;SDS011;3430;51.192;6.048;2022-08-05T14:00:24;1.27;;;1.10;;
6785;SDS011;3430;51.192;6.048;2022-08-05T14:02:50;1.30;;;1.20;;
6785;SDS011;3430;51.192;6.048;2022-08-05T14:05:15;2.37;;;1.10;;
6785;SDS011;3430;51.192;6.048;2022-08-05T14:07:41;1.90;;;1.10;;
6785;SDS011;3430;51.192;6.048;2022-08-05T14:10:08;1.40;;;1.20;;
6785;SDS011;3430;51.192;6.048;2022-08-05T14:12:34;2.00;;;1.10;;
6785;SDS011;3430;51.192;6.048;2022-08-05T14:14:59;0.87;;;0.87;;
6785;SDS011;3430;51.192;6.048;2022-08-05T14:17:24;2.07;;;1.37;;
6785;SDS011;3430;51.192;6.048;2022-08-05T14:19:51;1.70;;;1.50;;
6785;SDS011;3430;51.192;6.048;2022-08-05T14:22:16;1.40;;;1.20;;
6785;SDS011;3430;51.192;6.048;2022-08-05T14:24:41;2.10;;;1.00;;
6785;SDS011;3430;51.192;6.048;2022-08-05T14:27:07;2.93;;;1.10;;
6785;SDS011;3430;51.192;6.048;2022-08-05T14:29:32;1.30;;;1.20;;
6785;SDS011;3430;51.192;6.048;2022-08-05T14:31:58;1.90;;;1.47;;
6785;SDS011;3430;51.192;6.048;2022-08-05T14:34:23;1.33;;;1.10;;
6785;SDS011;3430;51.192;6.048;2022-08-05T14:36:49;1.20;;;1.10;;
6785;SDS011;3430;51.192;6.048;2022-08-05T14:39:14;0.90;;;0.90;;
6785;SDS011;3430;51.192;6.048;2022-08-05T14:41:39;2.27;;;1.10;;
6785;SDS011;3430;51.192;6.048;2022-08-05T14:44:05;1.10;;;0.90;;
6785;SDS011;3430;51.192;6.048;2022-08-05T14:46:30;1.00;;;0.90;;
6785;SDS011;3430;51.192;6.048;2022-08-05T14:48:57;3.57;;;1.17;;
6785;SDS011;3430;51.192;6.048;2022-08-05T14:51:22;1.47;;;1.07;;
6785;SDS011;3430;51.192;6.048;2022-08-05T14:53:48;1.30;;;1.00;;
6785;SDS011;3430;51.192;6.048;2022-08-05T14:56:14;3.23;;;1.30;;
6785;SDS011;3430;51.192;6.048;2022-08-05T14:58:39;0.97;;;0.97;;
6785;SDS011;3430;51.192;6.048;2022-08-05T15:01:04;3.27;;;1.40;;
6785;SDS011;3430;51.192;6.048;2022-08-05T15:03:30;1.00;;;1.00;;
6785;SDS011;3430;51.192;6.048;2022-08-05T15:05:55;1.33;;;1.10;;
6785;SDS011;3430;51.192;6.048;2022-08-05T15:08:21;2.87;;;1.27;;
6785;SDS011;3430;51.192;6.048;2022-08-05T15:10:46;1.43;;;1.00;;
6785;SDS011;3430;51.192;6.048;2022-08-05T15:13:11;1.00;;;0.90;;
6785;SDS011;3430;51.192;6.048;2022-08-05T15:15:36;1.17;;;1.00;;
6785;SDS011;3430;51.192;6.048;2022-08-05T15:18:02;1.93;;;1.00;;
6785;SDS011;3430;51.192;6.048;2022-08-05T15:20:27;1.33;;;1.10;;
6785;SDS011;3430;51.192;6.048;2022-08-05T15:22:52;2.83;;;1.20;;
6785;SDS011;3430;51.192;6.048;2022-08-05T15:25:18;1.57;;;1.03;;
6785;SDS011;3430;51.192;6.048;2022-08-05T15:27:44;1.20;;;1.10;;
6785;SDS011;3430;51.192;6.048;2022-08-05T15:30:09;1.13;;;1.10;;
6785;SDS011;3430;51.192;6.048;2022-08-05T15:32:35;1.93;;;1.00;;
6785;SDS011;3430;51.192;6.048;2022-08-05T15:35:00;1.67;;;1.00;;
6785;SDS011;3430;51.192;6.048;2022-08-05T15:37:26;1.20;;;0.97;;
6785;SDS011;3430;51.192;6.048;2022-08-05T15:39:51;1.30;;;1.10;;
6785;SDS011;3430;51.192;6.048;2022-08-05T15:42:16;4.97;;;1.00;;